China Lake, California
Current Conditions -  °F | °C
As of 3:56 PM on Wednesday 28 Jan 2015 (Local Time) from KNID Reporting Station
Overcast Overcast  
Wind Chill: 61°   Ceiling: 20000
Heat Index: 61°   Visibility: 10mi
Dew Point: 46°   Wind: 6mph
Humidity: 58%   Direction: 130°SE
Pressure: 30.18"   Gusts: NA
Location:  35.68°N, 117.68°W
Report Text: KNID 282356Z 13005KT 10SM FEW060 BKN200 OVC270 16/08 A3018 RMK AO2 SLP221 T01610078 10167 20122 55006 $
Loading
Personal Weather Stations






























Interactive Weather Map New forecast layout! Learn more

10-Day Weather Forecast

Advertisements
Track Severe Weather on mobile